Airfield :
LOGIN :

Register | Disclaimer

   EN    FR    IT 

 










Legend :    VFR   Marginal VFR   IFR   Intensive IFR   Very Intensive IFR
Visi :
Ceiling :
>= 8 km
>= 3000ft
5 to 8 km
1000 to 3000 ft
1500m to 5 km
500 to 1000 ft
800 to 1500m
200 to 500 ft
< 800m
< 200 ft
Symbols :   Thunderstorms  Fog  Heavy snow  Heavy precipitations  Wind > 20 kt
SIGMETs :     Misc.  Thunderstorms  Icing  Turbulence  Mountain Waves  Volcanic Ashes






- Airport Elevation : 47 ft
- IATA code : BMA


ESSB - Stockholm-Bromma

CURRENT METAR :
  • 120020Z AUTO 14004KT 9999 FEW220/// 03/03 Q1010

EXPIRED METARs :
  • 112350Z AUTO 15005KT 9999 NCD 04/03 Q1011
  • 112320Z AUTO 15006KT 9999 NCD 04/03 Q1011
  • 112250Z AUTO 14006KT 9999 NCD 05/04 Q1010
  • 112220Z AUTO 15006KT 9999 FEW013/// 05/04 Q1010
  • 112150Z AUTO 15005KT 9999 FEW011/// SCT016/// BKN045/// 05/04 Q1010

Expired Forecast.



MET'MAP, your aeronautical weather chart ! - Copyright ORBIFLY December 2007 - Disclaimer

ORBIFLY MET'MAP TEAM :

Programming & Development : Alexandra Zaïnal
Concept & Development : Baudouin d'Aumeries
Co-Development & Prog : Marc-Olivier Méhu
Technical & hardware support : Manuel Goepfert

Contact : metmap@orbifly.com




SOURCES & CREDITS :

   NOAA